createdAt,value
2023-03-14T00:00:01.334Z,2.10
2023-03-14T00:02:28.526Z,1.83
2023-03-14T00:04:56.513Z,3.65
2023-03-14T00:07:25.414Z,1.45
2023-03-14T00:09:52.275Z,2.97
2023-03-14T00:12:18.817Z,2.08
2023-03-14T00:14:46.490Z,1.30
2023-03-14T00:17:14.864Z,2.20
2023-03-14T00:19:41.353Z,1.45
2023-03-14T00:22:11.881Z,1.05
2023-03-14T00:24:38.380Z,2.25
2023-03-14T00:27:04.914Z,3.58
2023-03-14T00:29:31.460Z,0.80
2023-03-14T00:31:58.003Z,0.88
2023-03-14T00:34:24.486Z,1.05
2023-03-14T00:36:50.973Z,2.60
2023-03-14T00:39:17.645Z,1.38
2023-03-14T00:41:44.151Z,1.40
2023-03-14T00:44:10.757Z,0.65
2023-03-14T00:46:39.572Z,3.08
2023-03-14T00:49:06.836Z,0.93
2023-03-14T00:51:33.320Z,3.42
2023-03-14T00:54:00.509Z,1.02
2023-03-14T00:56:28.487Z,2.50
2023-03-14T00:58:56.631Z,0.32
2023-03-14T01:01:23.627Z,1.17
2023-03-14T01:03:54.747Z,0.88
2023-03-14T01:06:26.009Z,0.30
2023-03-14T01:08:52.904Z,0.77
2023-03-14T01:11:30.893Z,0.40
2023-03-14T01:13:58.627Z,1.83
2023-03-14T01:16:29.764Z,0.52
2023-03-14T01:18:56.412Z,0.30
2023-03-14T01:21:22.973Z,0.70
2023-03-14T01:23:49.971Z,0.88
2023-03-14T01:26:19.850Z,0.32
2023-03-14T01:28:46.853Z,0.40
2023-03-14T01:31:14.026Z,0.32
2023-03-14T01:33:41.050Z,0.57
2023-03-14T01:36:09.791Z,0.52
2023-03-14T01:38:37.637Z,0.55
2023-03-14T01:41:05.257Z,0.40
2023-03-14T01:43:31.817Z,0.10
2023-03-14T01:46:07.898Z,0.73
2023-03-14T01:48:41.662Z,0.40
2023-03-14T01:51:10.150Z,0.30
2023-03-14T01:53:37.561Z,0.30
2023-03-14T01:56:04.886Z,0.30
2023-03-14T01:58:33.397Z,0.30
2023-03-14T02:01:02.487Z,0.40
2023-03-14T02:03:30.299Z,0.25
2023-03-14T02:06:00.635Z,0.75
2023-03-14T02:08:28.504Z,0.68
2023-03-14T02:10:59.736Z,0.35
2023-03-14T02:13:43.143Z,1.13
2023-03-14T02:16:25.827Z,0.20
2023-03-14T02:19:21.313Z,0.55
2023-03-14T02:22:17.460Z,1.23
2023-03-14T02:24:52.347Z,0.70
2023-03-14T02:27:20.994Z,1.60
2023-03-14T02:29:47.848Z,0.65
2023-03-14T02:32:15.692Z,0.50
2023-03-14T02:34:43.502Z,3.63
2023-03-14T02:37:11.084Z,0.47
2023-03-14T02:39:42.812Z,0.20
2023-03-14T02:42:10.166Z,0.50
2023-03-14T02:44:36.904Z,0.82
2023-03-14T02:47:05.202Z,3.50
2023-03-14T02:49:33.022Z,0.30
2023-03-14T02:51:59.651Z,1.85
2023-03-14T02:54:26.213Z,1.15
2023-03-14T02:56:53.173Z,1.23
2023-03-14T02:59:22.429Z,0.30
2023-03-14T03:01:52.855Z,1.02
2023-03-14T03:04:19.412Z,0.57
2023-03-14T03:06:46.973Z,1.85
2023-03-14T03:09:14.404Z,0.43
2023-03-14T03:11:41.528Z,2.35
2023-03-14T03:14:11.606Z,1.38
2023-03-14T03:16:38.878Z,0.80
2023-03-14T03:19:05.412Z,0.30
2023-03-14T03:21:32.009Z,0.65
2023-03-14T03:24:00.111Z,0.47
2023-03-14T03:26:26.759Z,0.80
2023-03-14T03:28:53.538Z,0.45
2023-03-14T03:31:20.854Z,2.13
2023-03-14T03:33:47.532Z,1.33
2023-03-14T03:36:16.635Z,1.38
2023-03-14T03:38:43.756Z,0.50
2023-03-14T03:41:10.329Z,0.68
2023-03-14T03:43:36.956Z,1.85
2023-03-14T03:46:09.151Z,0.95
2023-03-14T03:48:36.793Z,4.20
2023-03-14T03:51:05.241Z,1.88
2023-03-14T03:53:33.943Z,1.35
2023-03-14T03:56:04.668Z,1.80
2023-03-14T03:58:31.214Z,1.08
2023-03-14T04:00:57.722Z,2.50
2023-03-14T04:03:24.521Z,2.13
2023-03-14T04:06:01.550Z,2.30
2023-03-14T04:08:29.393Z,0.57
2023-03-14T04:10:59.508Z,0.90
2023-03-14T04:13:44.708Z,3.53
2023-03-14T04:16:16.709Z,2.08
2023-03-14T04:18:43.757Z,3.78
2023-03-14T04:21:10.591Z,2.42
2023-03-14T04:23:45.087Z,2.45
2023-03-14T04:26:11.658Z,6.15
2023-03-14T04:28:39.931Z,4.97
2023-03-14T04:31:10.470Z,2.78
2023-03-14T04:33:38.170Z,2.17
2023-03-14T04:36:05.908Z,3.42
2023-03-14T04:38:32.901Z,1.88
2023-03-14T04:41:00.538Z,3.60
2023-03-14T04:43:31.510Z,4.47
2023-03-14T04:46:05.740Z,3.70
2023-03-14T04:48:32.457Z,4.50
2023-03-14T04:50:59.909Z,8.13
2023-03-14T04:53:32.541Z,6.47
2023-03-14T04:56:00.326Z,2.03
2023-03-14T04:58:33.976Z,3.42
2023-03-14T05:01:05.190Z,6.57
2023-03-14T05:06:18.376Z,5.47
2023-03-14T05:08:45.972Z,7.97
2023-03-14T05:11:21.764Z,2.83
2023-03-14T05:14:07.140Z,3.70
2023-03-14T05:16:58.912Z,3.47
2023-03-14T05:19:36.254Z,3.88
2023-03-14T05:22:38.981Z,5.30
2023-03-14T05:25:37.808Z,3.83
2023-03-14T05:28:14.014Z,4.97
2023-03-14T05:31:07.187Z,6.72
2023-03-14T05:34:03.014Z,4.00
2023-03-14T05:36:35.485Z,4.97
2023-03-14T05:39:22.619Z,4.03
2023-03-14T05:42:11.956Z,6.57
2023-03-14T05:45:05.156Z,5.50
2023-03-14T05:47:52.561Z,5.57
2023-03-14T05:50:42.325Z,4.40
2023-03-14T05:53:32.602Z,3.58
2023-03-14T05:56:14.224Z,4.10
2023-03-14T05:59:14.716Z,6.90
2023-03-14T06:02:01.592Z,12.77
2023-03-14T06:04:37.327Z,5.13
2023-03-14T06:07:19.250Z,2.88
2023-03-14T06:09:46.287Z,2.55
2023-03-14T06:12:15.556Z,3.38
2023-03-14T06:14:43.873Z,4.28
2023-03-14T06:17:11.033Z,3.13
2023-03-14T06:19:46.965Z,2.78
2023-03-14T06:22:14.455Z,5.57
2023-03-14T06:24:41.227Z,3.17
2023-03-14T06:27:07.921Z,3.92
2023-03-14T06:29:34.560Z,2.38
2023-03-14T06:32:02.328Z,3.75
2023-03-14T06:34:28.929Z,3.83
2023-03-14T06:36:55.596Z,3.63
2023-03-14T06:39:22.108Z,3.63
2023-03-14T06:41:54.483Z,4.13
2023-03-14T06:44:21.072Z,3.55
2023-03-14T06:46:48.006Z,5.35
2023-03-14T06:49:14.480Z,5.10
2023-03-14T06:51:41.853Z,5.22
2023-03-14T06:54:10.291Z,3.28
2023-03-14T06:56:36.988Z,2.97
2023-03-14T06:59:03.548Z,4.53
2023-03-14T07:01:33.986Z,0.88
2023-03-14T07:04:10.586Z,2.42
2023-03-14T07:06:40.669Z,5.03
2023-03-14T07:09:07.470Z,2.88
2023-03-14T07:11:37.708Z,1.88
2023-03-14T07:14:04.733Z,2.80
2023-03-14T07:16:33.995Z,2.10
2023-03-14T07:19:01.273Z,5.28
2023-03-14T07:21:27.804Z,1.58
2023-03-14T07:23:54.882Z,2.75
2023-03-14T07:26:21.845Z,4.05
2023-03-14T07:28:51.091Z,4.50
2023-03-14T07:31:19.421Z,2.78
2023-03-14T07:33:46.768Z,3.42
2023-03-14T07:36:13.322Z,4.55
2023-03-14T07:38:43.509Z,7.35
2023-03-14T07:41:10.412Z,7.45
2023-03-14T07:43:43.050Z,4.07
2023-03-14T07:46:09.752Z,2.53
2023-03-14T07:48:36.292Z,2.67
2023-03-14T07:51:02.823Z,4.45
2023-03-14T07:53:29.468Z,4.05
2023-03-14T07:55:56.076Z,9.10
2023-03-14T07:58:23.127Z,2.33
2023-03-14T08:00:50.102Z,4.57
2023-03-14T08:03:20.139Z,6.45
2023-03-14T08:05:50.342Z,3.58
2023-03-14T08:08:17.306Z,3.33
2023-03-14T08:10:43.988Z,3.80
2023-03-14T08:13:11.251Z,6.43
2023-03-14T08:15:38.065Z,1.77
2023-03-14T08:18:05.224Z,3.17
2023-03-14T08:20:31.991Z,2.03
2023-03-14T08:22:58.986Z,2.25
2023-03-14T08:25:25.861Z,3.03
2023-03-14T08:27:52.443Z,3.25
2023-03-14T08:30:19.729Z,3.88
2023-03-14T08:32:46.348Z,2.05
2023-03-14T08:35:13.022Z,4.22
2023-03-14T08:37:39.643Z,3.85
2023-03-14T08:40:10.854Z,4.03
2023-03-14T08:42:38.316Z,2.90
2023-03-14T08:45:05.144Z,2.35
2023-03-14T08:47:31.772Z,5.65
2023-03-14T08:49:58.512Z,4.05
2023-03-14T08:52:25.238Z,3.80
2023-03-14T08:54:51.747Z,1.67
2023-03-14T08:57:18.347Z,1.33
2023-03-14T08:59:44.802Z,2.13
2023-03-14T09:02:13.524Z,1.80
2023-03-14T09:04:40.424Z,1.25
2023-03-14T09:07:07.162Z,1.58
2023-03-14T09:09:33.837Z,2.42
2023-03-14T09:12:00.508Z,2.50
2023-03-14T09:14:27.186Z,5.45
2023-03-14T09:16:54.186Z,3.83
2023-03-14T09:19:21.096Z,0.90
2023-03-14T09:21:47.573Z,1.25
2023-03-14T09:24:14.209Z,4.25
2023-03-14T09:26:41.079Z,1.10
2023-03-14T09:29:08.124Z,1.67
2023-03-14T09:31:34.867Z,1.85
2023-03-14T09:34:01.355Z,4.07
2023-03-14T09:36:27.966Z,3.35
2023-03-14T09:38:54.512Z,3.42
2023-03-14T09:41:21.032Z,3.58
2023-03-14T09:43:49.392Z,3.30
2023-03-14T09:46:16.413Z,3.30
2023-03-14T09:48:44.139Z,3.28
2023-03-14T09:51:15.357Z,2.38
2023-03-14T09:53:43.755Z,3.78
2023-03-14T09:56:15.186Z,2.85
2023-03-14T09:58:43.350Z,4.80
2023-03-14T10:01:11.995Z,2.35
2023-03-14T10:03:38.644Z,1.40
2023-03-14T10:06:12.018Z,2.03
2023-03-14T10:08:42.399Z,2.60
2023-03-14T10:11:15.354Z,1.75
2023-03-14T10:13:49.919Z,2.65
2023-03-14T10:16:16.636Z,3.47
2023-03-14T10:18:46.748Z,2.35
2023-03-14T10:21:26.894Z,2.08
2023-03-14T10:23:53.509Z,5.13
2023-03-14T10:26:25.142Z,1.45
2023-03-14T10:29:01.890Z,4.55
2023-03-14T10:31:28.585Z,6.38
2023-03-14T10:33:59.576Z,2.78
2023-03-14T10:36:29.354Z,4.05
2023-03-14T10:39:05.668Z,2.10
2023-03-14T10:41:32.662Z,3.47
2023-03-14T10:44:00.104Z,2.33
2023-03-14T10:46:27.521Z,5.68
2023-03-14T10:51:39.851Z,5.20
2023-03-14T10:54:20.293Z,0.80
2023-03-14T10:56:56.725Z,1.55
2023-03-14T10:59:23.352Z,1.50
2023-03-14T11:02:08.192Z,1.45
2023-03-14T11:04:46.902Z,2.03
2023-03-14T11:07:13.438Z,2.53
2023-03-14T11:09:53.425Z,3.13
2023-03-14T11:12:33.153Z,1.33
2023-03-14T11:15:02.979Z,2.05
2023-03-14T11:17:42.542Z,2.05
2023-03-14T11:20:10.192Z,4.22
2023-03-14T11:22:42.132Z,1.85
2023-03-14T11:25:08.863Z,3.20
2023-03-14T11:27:40.564Z,1.80
2023-03-14T11:30:16.272Z,0.85
2023-03-14T11:32:47.313Z,2.65
2023-03-14T11:35:24.505Z,1.05
2023-03-14T11:37:57.022Z,2.58
2023-03-14T11:40:27.044Z,2.58
2023-03-14T11:43:08.922Z,3.40
2023-03-14T11:45:37.210Z,1.25
2023-03-14T11:48:33.234Z,1.20
2023-03-14T11:51:03.205Z,1.30
2023-03-14T11:53:29.642Z,1.02
2023-03-14T11:55:56.260Z,1.15
2023-03-14T11:58:31.952Z,2.40
2023-03-14T12:01:00.455Z,1.20
2023-03-14T12:03:36.477Z,1.45
2023-03-14T12:06:22.241Z,1.77
2023-03-14T12:11:26.822Z,0.55
2023-03-14T12:13:54.104Z,0.63
2023-03-14T12:16:26.469Z,1.15
2023-03-14T12:18:53.664Z,2.42
2023-03-14T12:21:20.875Z,1.40
2023-03-14T12:23:51.986Z,1.00
2023-03-14T12:26:18.878Z,1.25
2023-03-14T12:28:53.302Z,1.17
2023-03-14T12:31:32.503Z,1.65
2023-03-14T12:34:25.008Z,2.80
2023-03-14T12:37:00.730Z,2.65
2023-03-14T12:39:27.397Z,2.08
2023-03-14T12:42:00.550Z,0.40
2023-03-14T12:44:29.870Z,0.75
2023-03-14T12:47:15.324Z,1.85
2023-03-14T12:49:42.017Z,1.30
2023-03-14T12:52:15.422Z,0.75
2023-03-14T12:54:45.109Z,0.90
2023-03-14T12:57:30.025Z,0.88
2023-03-14T13:00:00.512Z,1.95
2023-03-14T13:02:28.845Z,2.20
2023-03-14T13:05:01.701Z,1.25
2023-03-14T13:07:45.236Z,1.58
2023-03-14T13:10:12.126Z,1.98
2023-03-14T13:12:45.124Z,2.10
2023-03-14T13:15:24.777Z,0.20
2023-03-14T13:17:53.009Z,1.85
2023-03-14T13:20:23.906Z,1.40
2023-03-14T13:22:53.562Z,1.88
2023-03-14T13:25:22.089Z,0.63
2023-03-14T13:27:48.984Z,0.60
2023-03-14T13:30:21.449Z,1.42
2023-03-14T13:32:48.774Z,3.03
2023-03-14T13:35:17.070Z,2.15
2023-03-14T13:37:43.737Z,0.80
2023-03-14T13:40:19.407Z,0.32
2023-03-14T13:42:46.242Z,1.08
2023-03-14T13:45:15.021Z,1.17
2023-03-14T13:47:44.041Z,0.70
2023-03-14T13:50:15.470Z,1.15
2023-03-14T13:52:42.036Z,0.77
2023-03-14T13:55:16.531Z,0.73
2023-03-14T13:57:44.659Z,2.87
2023-03-14T14:00:22.266Z,3.53
2023-03-14T14:02:49.155Z,0.85
2023-03-14T14:05:16.122Z,1.23
2023-03-14T14:07:44.808Z,0.77
2023-03-14T14:10:13.008Z,1.23
2023-03-14T14:12:41.968Z,0.82
2023-03-14T14:15:11.279Z,1.70
2023-03-14T14:17:43.542Z,1.20
2023-03-14T14:20:22.827Z,1.33
2023-03-14T14:22:50.098Z,1.92
2023-03-14T14:25:17.017Z,2.38
2023-03-14T14:27:45.038Z,0.95
2023-03-14T14:30:20.629Z,1.17
2023-03-14T14:35:26.209Z,0.32
2023-03-14T14:37:53.613Z,1.13
2023-03-14T14:40:22.099Z,1.95
2023-03-14T14:42:50.117Z,1.15
2023-03-14T14:45:21.774Z,3.88
2023-03-14T14:47:56.063Z,1.30
2023-03-14T14:50:32.064Z,2.22
2023-03-14T14:52:59.634Z,0.88
2023-03-14T14:55:32.034Z,2.67
2023-03-14T14:57:58.753Z,1.10
2023-03-14T15:00:27.027Z,3.60
2023-03-14T15:02:56.168Z,1.13
2023-03-14T15:05:24.824Z,1.38
2023-03-14T15:07:51.490Z,0.88
2023-03-14T15:10:22.733Z,1.63
2023-03-14T15:12:49.455Z,2.15
2023-03-14T15:15:16.564Z,1.58
2023-03-14T15:17:43.452Z,1.83
2023-03-14T15:20:14.898Z,1.38
2023-03-14T15:22:41.934Z,2.75
2023-03-14T15:25:12.986Z,2.47
2023-03-14T15:27:48.638Z,1.80
2023-03-14T15:30:16.279Z,2.17
2023-03-14T15:32:42.818Z,1.08
2023-03-14T15:35:10.625Z,1.85
2023-03-14T15:37:37.687Z,2.38
2023-03-14T15:40:12.749Z,3.03
2023-03-14T15:42:39.402Z,1.80
2023-03-14T15:45:06.282Z,2.15
2023-03-14T15:47:33.488Z,4.32
2023-03-14T15:50:00.013Z,1.73
2023-03-14T15:52:26.524Z,5.05
2023-03-14T15:54:53.107Z,2.42
2023-03-14T15:57:19.560Z,0.98
2023-03-14T15:59:46.237Z,3.95
2023-03-14T16:02:13.130Z,1.50
2023-03-14T16:04:40.094Z,4.30
2023-03-14T16:07:06.910Z,1.95
2023-03-14T16:09:37.686Z,1.58
2023-03-14T16:12:05.918Z,2.00
2023-03-14T16:14:32.664Z,2.08
2023-03-14T16:17:00.417Z,0.43
2023-03-14T16:19:27.215Z,1.05
2023-03-14T16:21:53.774Z,1.42
2023-03-14T16:24:20.375Z,6.13
2023-03-14T16:26:48.547Z,5.60
2023-03-14T16:29:15.166Z,2.63
2023-03-14T16:31:43.156Z,1.33
2023-03-14T16:34:10.028Z,2.03
2023-03-14T16:36:36.490Z,1.48
2023-03-14T16:39:03.899Z,0.85
2023-03-14T16:41:31.674Z,1.10
2023-03-14T16:44:01.933Z,1.77
2023-03-14T16:46:30.447Z,5.43
2023-03-14T16:48:57.178Z,3.80
2023-03-14T16:51:23.891Z,4.20
2023-03-14T16:53:50.701Z,3.40
2023-03-14T16:56:17.255Z,1.83
2023-03-14T16:58:43.826Z,1.67
2023-03-14T17:01:12.155Z,1.48
2023-03-14T17:03:39.401Z,2.38
2023-03-14T17:06:06.348Z,2.88
2023-03-14T17:08:33.492Z,2.65
2023-03-14T17:10:59.944Z,3.65
2023-03-14T17:13:27.642Z,4.88
2023-03-14T17:15:57.870Z,3.58
2023-03-14T17:18:25.434Z,3.25
2023-03-14T17:20:52.744Z,3.90
2023-03-14T17:23:20.072Z,2.33
2023-03-14T17:25:47.523Z,7.85
2023-03-14T17:28:13.964Z,3.13
2023-03-14T17:30:40.651Z,2.45
2023-03-14T17:33:07.277Z,3.80
2023-03-14T17:35:34.058Z,6.15
2023-03-14T17:38:00.913Z,2.70
2023-03-14T17:40:28.123Z,5.60
2023-03-14T17:42:54.797Z,8.13
2023-03-14T17:45:21.721Z,4.28
2023-03-14T17:47:50.464Z,12.30
2023-03-14T17:50:17.546Z,9.18
2023-03-14T17:52:44.246Z,8.13
2023-03-14T17:55:12.155Z,5.82
2023-03-14T17:57:40.226Z,7.57
2023-03-14T18:00:09.156Z,9.95
2023-03-14T18:02:35.886Z,8.68
2023-03-14T18:05:03.657Z,8.52
2023-03-14T18:07:33.281Z,10.07
2023-03-14T18:09:59.820Z,21.33
2023-03-14T18:12:27.103Z,14.10
2023-03-14T18:14:53.906Z,13.73
2023-03-14T18:17:20.847Z,10.48
2023-03-14T18:19:47.513Z,11.50
2023-03-14T18:22:16.041Z,14.57
2023-03-14T18:24:42.665Z,10.88
2023-03-14T18:27:09.425Z,11.98
2023-03-14T18:29:36.826Z,15.00
2023-03-14T18:32:03.388Z,17.17
2023-03-14T18:34:33.211Z,16.08
2023-03-14T18:36:59.994Z,12.63
2023-03-14T18:39:26.838Z,14.07
2023-03-14T18:41:53.441Z,16.00
2023-03-14T18:44:21.489Z,19.95
2023-03-14T18:46:48.704Z,14.95
2023-03-14T18:49:15.445Z,15.63
2023-03-14T18:51:43.494Z,18.42
2023-03-14T18:54:11.715Z,16.70
2023-03-14T18:56:39.531Z,17.30
2023-03-14T18:59:06.603Z,10.63
2023-03-14T19:01:34.392Z,11.68
2023-03-14T19:04:01.543Z,20.15
2023-03-14T19:06:28.742Z,16.42
2023-03-14T19:08:55.363Z,18.00
2023-03-14T19:11:22.207Z,12.32
2023-03-14T19:13:49.587Z,20.35
2023-03-14T19:16:16.335Z,12.48
2023-03-14T19:18:43.169Z,11.18
2023-03-14T19:21:10.711Z,19.42
2023-03-14T19:23:39.671Z,16.40
2023-03-14T19:26:07.151Z,13.05
2023-03-14T19:28:33.680Z,13.80
2023-03-14T19:31:02.061Z,13.75
2023-03-14T19:33:29.824Z,14.77
2023-03-14T19:35:56.771Z,16.92
2023-03-14T19:38:23.318Z,15.82
2023-03-14T19:40:50.583Z,15.02
2023-03-14T19:43:17.373Z,17.65
2023-03-14T19:45:44.146Z,16.30
2023-03-14T19:48:11.453Z,23.42
2023-03-14T19:50:38.351Z,16.30
2023-03-14T19:53:04.917Z,16.55
2023-03-14T19:55:34.615Z,20.88
2023-03-14T19:58:01.775Z,16.27
2023-03-14T20:00:28.244Z,16.00
2023-03-14T20:02:54.877Z,14.57
2023-03-14T20:05:22.789Z,26.50
2023-03-14T20:07:50.059Z,17.33
2023-03-14T20:10:17.763Z,25.00
2023-03-14T20:12:47.509Z,18.48
2023-03-14T20:15:18.324Z,19.10
2023-03-14T20:17:49.368Z,15.63
2023-03-14T20:20:16.256Z,17.30
2023-03-14T20:22:43.144Z,10.98
2023-03-14T20:25:13.977Z,21.17
2023-03-14T20:27:41.393Z,17.20
2023-03-14T20:30:10.936Z,15.60
2023-03-14T20:32:37.760Z,13.93
2023-03-14T20:35:04.373Z,13.55
2023-03-14T20:37:30.923Z,17.23
2023-03-14T20:39:57.552Z,16.40
2023-03-14T20:42:26.510Z,19.85
2023-03-14T20:44:54.091Z,16.30
2023-03-14T20:47:21.126Z,14.98
2023-03-14T20:49:47.572Z,12.95
2023-03-14T20:52:14.374Z,15.02
2023-03-14T20:54:41.237Z,15.23
2023-03-14T20:57:07.750Z,11.10
2023-03-14T20:59:34.350Z,11.95
2023-03-14T21:02:00.966Z,14.02
2023-03-14T21:04:27.737Z,10.70
2023-03-14T21:06:57.385Z,14.23
2023-03-14T21:09:24.594Z,13.55
2023-03-14T21:11:51.674Z,15.07
2023-03-14T21:14:18.719Z,11.02
2023-03-14T21:16:57.088Z,15.63
2023-03-14T21:19:30.366Z,19.77
2023-03-14T21:22:00.727Z,12.80
2023-03-14T21:24:27.387Z,12.88
2023-03-14T21:26:53.934Z,17.40
2023-03-14T21:29:21.659Z,17.42
2023-03-14T21:31:48.704Z,10.93
2023-03-14T21:34:15.237Z,13.25
2023-03-14T21:36:41.951Z,12.35
2023-03-14T21:39:08.747Z,12.20
2023-03-14T21:41:35.496Z,12.70
2023-03-14T21:44:02.010Z,19.25
2023-03-14T21:46:28.591Z,12.70
2023-03-14T21:48:55.270Z,20.48
2023-03-14T21:51:21.696Z,14.32
2023-03-14T21:53:48.624Z,12.60
2023-03-14T21:56:15.183Z,13.70
2023-03-14T21:58:41.671Z,12.82
2023-03-14T22:01:10.112Z,11.48
2023-03-14T22:03:36.694Z,7.20
2023-03-14T22:06:03.244Z,12.18
2023-03-14T22:08:29.819Z,10.57
2023-03-14T22:10:56.473Z,14.85
2023-03-14T22:13:23.957Z,12.80
2023-03-14T22:15:50.793Z,16.50
2023-03-14T22:18:18.042Z,24.50
2023-03-14T22:20:44.898Z,12.73
2023-03-14T22:23:11.802Z,14.73
2023-03-14T22:25:42.511Z,10.05
2023-03-14T22:28:09.354Z,13.38
2023-03-14T22:30:36.068Z,16.55
2023-03-14T22:33:02.674Z,17.15
2023-03-14T22:35:30.479Z,13.82
2023-03-14T22:37:57.167Z,12.85
2023-03-14T22:40:23.777Z,17.08
2023-03-14T22:42:53.178Z,11.85
2023-03-14T22:45:19.682Z,14.30
2023-03-14T22:47:46.120Z,8.45
2023-03-14T22:50:12.811Z,12.98
2023-03-14T22:52:39.262Z,10.65
2023-03-14T22:55:06.150Z,9.95
2023-03-14T22:57:32.827Z,11.25
2023-03-14T22:59:59.329Z,13.43
2023-03-14T23:02:26.009Z,11.13
2023-03-14T23:04:52.486Z,11.52
2023-03-14T23:07:19.229Z,22.17
2023-03-14T23:09:45.741Z,20.63
2023-03-14T23:12:12.343Z,11.48
2023-03-14T23:14:38.795Z,14.45
2023-03-14T23:17:05.653Z,21.95
2023-03-14T23:19:32.279Z,15.63
2023-03-14T23:21:58.746Z,15.23
2023-03-14T23:24:25.276Z,9.82
2023-03-14T23:26:51.782Z,18.20
2023-03-14T23:29:18.280Z,14.85
2023-03-14T23:31:45.813Z,16.00
2023-03-14T23:34:12.288Z,13.48
2023-03-14T23:39:30.103Z,12.93
2023-03-14T23:41:56.620Z,14.13
2023-03-14T23:44:23.469Z,13.77
2023-03-14T23:46:50.054Z,12.35
2023-03-14T23:49:16.562Z,15.82
2023-03-14T23:51:43.089Z,11.82
2023-03-14T23:54:09.721Z,12.13
2023-03-14T23:56:36.378Z,18.38
2023-03-14T23:59:03.200Z,10.48
